CW9444 Weather Reports


Display with metric or nautical units.
time (UTC)temp
F
wind
direction
speed
MPH
gust
MPH
rain 1hr
in
rain 24hr
in
rain mn
in
humidity
%
barometer
mb
20200125041702 43 327 0.0 0.0 0.00 0.00 0.00 85 1019.5
20200125040127 43 327 0.0 0.0 0.00 0.00 0.00 85 1019.5
20200125034631 43 327 0.0 0.0 0.00 0.00 0.00 85 1019.4
20200125033116 44 327 0.0 0.0 0.00 0.00 0.00 85 1019.3
20200125031632 44 327 0.0 0.0 0.00 0.00 0.00 83 1019.3
20200125030135 45 327 0.0 0.0 0.00 0.00 0.00 83 1019.3
20200125024535 45 327 0.0 0.0 0.00 0.00 0.00 81 1019.2
20200125021719 46 327 0.0 0.0 0.00 0.00 0.00 78 1019.1
20200125020018 47 327 0.0 0.0 0.00 0.00 0.00 77 1018.9
20200125015039 47 327 0.0 0.0 0.00 0.00 0.00 75 1018.8
20200125013109 48 327 0.0 0.0 0.00 0.00 0.00 76 1018.6
20200125011550 49 327 0.0 0.0 0.00 0.00 0.00 73 1018.5
20200125010128 50 327 0.0 0.0 0.00 0.00 0.00 73 1018.5
20200125004616 51 327 0.0 0.0 0.00 0.00 0.00 72 1018.3
20200125003036 52 327 0.0 0.0 0.00 0.00 0.00 68 1018.2
20200125001645 53 327 0.0 0.0 0.00 0.00 0.00 67 1018.1
20200125000023 55 327 0.0 0.0 0.00 0.00 0.00 61 1018.0
20200124234651 56 327 0.0 0.0 0.00 0.00 0.00 56 1017.9
20200124234511 56 327 0.0 0.0 0.00 0.00 0.00 57 1017.9
20200124233121 58 327 0.0 0.0 0.00 0.00 0.00 53 1018.0
20200124231601 60 327 0.0 1.0 0.00 0.00 0.00 49 1018.0
20200124230202 62 327 0.0 1.0 0.00 0.00 0.00 43 1018.1
20200124224609 62 327 1.0 4.0 0.00 0.00 0.00 38 1017.8
20200124223050 62 327 0.0 3.0 0.00 0.00 0.00 39 1017.8
20200124221729 62 327 0.0 4.0 0.00 0.00 0.00 38 1017.9
20200124221539 62 327 0.0 4.0 0.00 0.00 0.00 38 1017.9
20200124220039 62 327 0.0 3.0 0.00 0.00 0.00 41 1017.9
20200124214838 62 327 1.0 4.0 0.00 0.00 0.00 38 1017.9
20200124214518 62 327 1.0 4.0 0.00 0.00 0.00 37 1017.9
20200124213320 62 327 1.0 5.0 0.00 0.00 0.00 38 1017.9
20200124211640 62 325 1.0 3.0 0.00 0.00 0.00 39 1018.2
20200124210003 61 325 1.0 4.0 0.00 0.00 0.00 39 1018.2
20200124204710 62 325 1.0 4.0 0.00 0.00 0.00 40 1018.3
20200124203120 62 324 1.0 3.0 0.00 0.00 0.00 42 1018.3
20200124201601 60 323 1.0 2.0 0.00 0.00 0.00 43 1018.4
20200124200304 60 323 1.0 6.0 0.00 0.00 0.00 43 1018.6
20200124194639 60 322 1.0 3.0 0.00 0.00 0.00 42 1018.9
20200124193102 60 322 0.0 4.0 0.00 0.00 0.00 42 1019.1
20200124191746 59 321 1.0 6.0 0.00 0.00 0.00 43 1019.4
20200124190054 58 314 1.0 3.0 0.00 0.00 0.00 46 1019.7
20200124183221 57 314 3.0 5.0 0.00 0.00 0.00 56 1020.3
20200124181706 56 315 3.0 6.0 0.00 0.00 0.00 56 1020.4
20200124180211 56 316 3.0 5.0 0.00 0.00 0.00 56 1020.7
20200124174705 55 316 2.0 8.0 0.00 0.00 0.00 60 1020.9
20200124173050 54 319 2.0 5.0 0.00 0.00 0.00 63 1021.0
20200124171507 53 321 3.0 6.0 0.00 0.00 0.00 67 1021.1
20200124170156 53 327 1.0 6.0 0.00 0.00 0.00 68 1021.1
20200124164505 53 338 1.0 2.0 0.00 0.00 0.00 68 1021.1
20200124163244 53 339 0.0 3.0 0.00 0.00 0.00 66 1021.0
20200124161605 52 338 0.0 2.0 0.00 0.00 0.00 72 1020.8
20200124160009 50 338 0.0 6.0 0.00 0.00 0.00 78 1020.9
20200124154642 49 338 2.0 11.0 0.00 0.00 0.00 79 1020.9
20200124153150 48 342 2.0 9.0 0.00 0.00 0.00 84 1020.7
20200124151604 47 340 1.0 6.0 0.00 0.00 0.00 90 1020.6
20200124150249 45 341 0.0 2.0 0.00 0.00 0.00 95 1020.6
20200124144630 43 341 0.0 0.0 0.00 0.00 0.00 95 1020.3
20200124143055 41 341 0.0 0.0 0.00 0.00 0.00 95 1020.1
20200124141509 37 341 0.0 0.0 0.00 0.00 0.00 94 1019.9
20200124140109 37 341 0.0 0.0 0.00 0.00 0.00 94 1019.7
20200124134505 37 341 0.0 0.0 0.00 0.00 0.00 94 1019.5
20200124133225 37 341 0.0 0.0 0.00 0.00 0.00 94 1019.5
20200124131804 37 341 0.0 0.0 0.00 0.00 0.00 94 1019.3
20200124130156 37 341 0.0 0.0 0.00 0.00 0.00 94 1019.0
20200124124615 37 341 0.0 0.0 0.00 0.00 0.00 94 1018.9
20200124123036 37 341 0.0 0.0 0.00 0.00 0.00 94 1018.5
20200124121510 38 341 0.0 0.0 0.00 0.00 0.00 94 1018.5
20200124120111 38 341 0.0 0.0 0.00 0.00 0.00 94 1018.1
20200124114530 38 341 0.0 0.0 0.00 0.00 0.00 94 1017.8
20200124113154 38 341 0.0 0.0 0.00 0.00 0.00 93 1017.6
20200124111618 38 341 0.0 0.0 0.00 0.00 0.00 93 1017.5
20200124110136 38 341 0.0 0.0 0.00 0.00 0.00 93 1017.4
20200124104555 38 341 0.0 0.0 0.00 0.00 0.00 93 1017.3
20200124103126 38 341 0.0 0.0 0.00 0.00 0.00 93 1017.3
20200124101602 38 341 0.0 0.0 0.00 0.00 0.00 92 1017.3
20200124100207 38 341 0.0 0.0 0.00 0.00 0.00 93 1017.3
20200124094559 38 341 0.0 0.0 0.00 0.00 0.00 92 1017.5
20200124093027 39 341 0.0 0.0 0.00 0.00 0.00 92 1017.5
20200124090055 39 341 0.0 0.0 0.00 0.00 0.00 92 1017.5
20200124084621 40 341 0.0 0.0 0.00 0.00 0.00 92 1017.4
20200124083008 40 341 0.0 0.0 0.00 0.00 0.00 92 1017.4
20200124081800 40 341 0.0 0.0 0.00 0.00 0.00 92 1017.4
20200124080230 41 341 0.0 0.0 0.00 0.00 0.00 92 1017.5
20200124080107 41 341 0.0 0.0 0.00 0.00 0.00 92 1017.4
20200124074740 41 341 0.0 0.0 0.00 0.00 0.00 91 1017.5
20200124073122 41 341 0.0 0.0 0.00 0.00 0.00 91 1017.5
20200124071554 42 341 0.0 0.0 0.00 0.00 0.00 91 1017.5
20200124070119 42 341 0.0 0.0 0.00 0.00 0.00 91 1017.5
20200124064524 43 341 0.0 0.0 0.00 0.00 0.00 91 1017.4
20200124063312 43 341 0.0 0.0 0.00 0.00 0.00 91 1017.5
20200124061613 43 341 0.0 0.0 0.00 0.02 0.00 91 1017.6
20200124060222 43 341 0.0 0.0 0.00 0.02 0.00 90 1017.7
20200124054647 44 341 0.0 0.0 0.00 0.02 0.00 90 1017.6
20200124053104 44 341 0.0 0.0 0.00 0.02 0.00 90 1017.6
20200124051512 45 341 0.0 0.0 0.00 0.02 0.00 89 1017.6
20200124050043 45 341 0.0 0.0 0.00 0.02 0.00 89 1017.6
20200124044538 46 341 0.0 0.0 0.00 0.02 0.00 90 1017.4
20200124043233 47 341 0.0 0.0 0.00 0.02 0.00 90 1017.2